Time;durP1;ratioP1;P1;durP2;ratioP2;P2;SDS_P1;SDS_P2;PMS_P1;PMS_P2;Temp;Humidity;BMP_temperature;BMP_pressure;BME280_temperature;BME280_humidity;BME280_pressure;Samples;Min_cycle;Max_cycle;Signal;HPM_P1;HPM_P2
2023/03/25 00:00:17;;;;;;;3.50;2.72;;;10.40;99.90;;;;;;5050029;28;20205;-79
2023/03/25 00:02:50;;;;;;;6.57;2.65;;;10.30;99.90;;;;;;5054093;28;20225;-79
2023/03/25 00:05:19;;;;;;;5.22;4.10;;;10.20;99.90;;;;;;5043540;28;20516;-77
2023/03/25 00:07:49;;;;;;;2.70;2.20;;;10.30;99.90;;;;;;5046879;28;20201;-77
2023/03/25 00:10:17;;;;;;;5.20;2.00;;;10.20;99.90;;;;;;5055540;28;20381;-78
2023/03/25 00:12:43;;;;;;;5.32;2.83;;;10.30;99.90;;;;;;5046502;28;20232;-79
2023/03/25 00:15:15;;;;;;;6.00;3.65;;;10.40;99.90;;;;;;5054772;28;20232;-78
2023/03/25 00:17:42;;;;;;;6.88;3.00;;;10.50;99.90;;;;;;5049531;28;20760;-78
2023/03/25 00:20:10;;;;;;;2.90;2.55;;;10.40;99.90;;;;;;5045719;28;20278;-77
2023/03/25 00:22:42;;;;;;;3.53;2.60;;;10.40;99.90;;;;;;5048948;28;20711;-77
2023/03/25 00:25:17;;;;;;;8.25;3.70;;;10.30;99.90;;;;;;5057406;28;20205;-78
2023/03/25 00:27:47;;;;;;;5.63;2.85;;;10.40;99.90;;;;;;5053984;28;20202;-77
2023/03/25 00:30:16;;;;;;;10.18;3.67;;;10.50;99.90;;;;;;5052124;28;20217;-77
2023/03/25 00:32:51;;;;;;;5.95;3.20;;;10.60;99.90;;;;;;5053469;28;20216;-79
2023/03/25 00:35:20;;;;;;;5.43;3.28;;;10.60;99.90;;;;;;5034848;28;20192;-78
2023/03/25 00:37:51;;;;;;;4.30;3.25;;;10.60;99.90;;;;;;5043047;28;20224;-80
2023/03/25 00:40:18;;;;;;;6.63;4.13;;;10.60;99.90;;;;;;5051138;28;20619;-79
2023/03/25 00:42:49;;;;;;;4.13;3.30;;;10.60;99.90;;;;;;5054514;28;20215;-78
2023/03/25 00:45:16;;;;;;;7.60;3.33;;;10.60;99.90;;;;;;5064245;28;20238;-79
2023/03/25 00:47:43;;;;;;;4.00;3.50;;;10.40;99.90;;;;;;5050932;28;20204;-80
2023/03/25 00:50:10;;;;;;;3.30;3.00;;;10.30;99.90;;;;;;5047237;28;20558;-79
2023/03/25 00:52:37;;;;;;;4.45;3.17;;;10.40;99.90;;;;;;5050539;28;20406;-79
2023/03/25 00:55:05;;;;;;;3.75;3.30;;;10.40;99.90;;;;;;5045992;28;20241;-79
2023/03/25 00:57:32;;;;;;;6.07;3.50;;;10.40;99.90;;;;;;5046242;28;20207;-78
2023/03/25 00:59:59;;;;;;;5.72;3.83;;;10.50;99.90;;;;;;5043536;28;20507;-79
2023/03/25 01:02:25;;;;;;;7.45;4.00;;;10.30;99.90;;;;;;5043390;28;20274;-78
2023/03/25 01:04:53;;;;;;;4.82;3.20;;;10.30;99.90;;;;;;5040956;28;20710;-78
2023/03/25 01:07:21;;;;;;;4.00;3.38;;;10.40;99.90;;;;;;5039183;28;20204;-78
2023/03/25 01:09:48;;;;;;;7.78;3.53;;;10.20;99.90;;;;;;5049002;28;20216;-78
2023/03/25 01:12:17;;;;;;;4.93;3.33;;;10.10;99.90;;;;;;5040639;28;20580;-78
2023/03/25 01:14:44;;;;;;;3.42;2.78;;;10.20;99.90;;;;;;5050708;28;20210;-79
2023/03/25 01:17:11;;;;;;;4.03;2.90;;;10.20;99.90;;;;;;5051718;28;20204;-80
2023/03/25 01:19:38;;;;;;;5.03;3.42;;;10.10;99.90;;;;;;5044820;28;20227;-80
2023/03/25 01:22:05;;;;;;;5.78;3.92;;;10.20;99.90;;;;;;5040401;28;20209;-80
2023/03/25 01:24:34;;;;;;;5.88;4.28;;;10.10;99.90;;;;;;5051584;28;20255;-79
2023/03/25 01:27:01;;;;;;;4.20;3.30;;;10.00;99.90;;;;;;5047178;28;20398;-79
2023/03/25 01:29:29;;;;;;;5.90;4.20;;;10.20;99.90;;;;;;5040387;28;20210;-78
2023/03/25 01:31:57;;;;;;;4.32;2.88;;;9.90;99.90;;;;;;5045881;28;20709;-81
2023/03/25 01:34:24;;;;;;;4.10;3.67;;;10.00;99.90;;;;;;5047340;28;20232;-80
2023/03/25 01:36:53;;;;;;;5.15;3.75;;;9.90;99.90;;;;;;5040925;28;20201;-79
2023/03/25 01:39:21;;;;;;;3.83;3.08;;;9.70;99.90;;;;;;5039600;28;20560;-79
2023/03/25 01:41:49;;;;;;;4.78;3.38;;;9.70;99.90;;;;;;5046546;28;20244;-79
2023/03/25 01:44:23;;;;;;;4.72;2.88;;;9.80;99.90;;;;;;5041370;28;21009;-80
2023/03/25 01:46:51;;;;;;;2.40;2.20;;;9.90;99.90;;;;;;5039919;28;20259;-79
2023/03/25 01:49:37;;;;;;;7.35;3.72;;;10.00;99.90;;;;;;5041856;28;20382;-79
2023/03/25 01:52:10;;;;;;;5.43;3.13;;;10.10;99.90;;;;;;5046543;28;20378;-79
2023/03/25 01:54:39;;;;;;;4.75;2.80;;;10.10;99.90;;;;;;5040654;28;20326;-79
2023/03/25 01:57:07;;;;;;;4.25;3.47;;;10.10;99.90;;;;;;5055985;28;20200;-79
2023/03/25 01:59:35;;;;;;;4.93;3.03;;;10.10;99.90;;;;;;5054068;28;20247;-80
2023/03/25 02:02:05;;;;;;;4.70;3.35;;;10.10;99.90;;;;;;5038643;28;20213;-79
2023/03/25 02:04:38;;;;;;;6.25;3.28;;;10.10;99.90;;;;;;5047483;28;20429;-79
2023/03/25 02:07:09;;;;;;;5.15;3.53;;;10.20;99.90;;;;;;5054653;28;20262;-79
2023/03/25 02:09:38;;;;;;;3.97;2.97;;;10.00;99.90;;;;;;5044885;28;20222;-79
2023/03/25 02:12:05;;;;;;;3.83;3.10;;;9.90;99.90;;;;;;5050485;28;20223;-80
2023/03/25 02:14:34;;;;;;;9.27;3.35;;;10.00;99.90;;;;;;5053235;28;20282;-79
2023/03/25 02:17:29;;;;;;;3.33;2.92;;;10.10;99.90;;;;;;5041907;28;20300;-79
2023/03/25 02:20:15;;;;;;;6.32;3.97;;;10.10;99.90;;;;;;5049445;28;20198;-79
2023/03/25 02:23:20;;;;;;;5.30;3.10;;;10.00;99.90;;;;;;5062760;28;20211;-79
2023/03/25 02:26:24;;;;;;;3.67;2.97;;;9.90;99.90;;;;;;5060581;28;20185;-79
2023/03/25 02:29:00;;;;;;;9.35;5.47;;;9.80;99.90;;;;;;5056803;28;20211;-80
2023/03/25 02:32:06;;;;;;;4.35;3.25;;;9.60;99.90;;;;;;5036113;28;20215;-79
2023/03/25 02:35:21;;;;;;;8.30;3.70;;;9.50;99.90;;;;;;5033018;28;20235;-78
2023/03/25 02:38:08;;;;;;;9.85;4.82;;;9.50;99.90;;;;;;5039919;28;20682;-79
2023/03/25 02:40:51;;;;;;;7.35;4.25;;;9.40;99.90;;;;;;5046105;28;20405;-79
2023/03/25 02:43:26;;;;;;;5.15;4.00;;;9.50;99.90;;;;;;5037785;28;20212;-78
2023/03/25 02:45:58;;;;;;;6.40;4.35;;;9.40;99.90;;;;;;5040257;28;20216;-78
2023/03/25 02:48:41;;;;;;;5.68;4.30;;;9.20;99.90;;;;;;5028986;28;20290;-79
2023/03/25 02:51:20;;;;;;;8.38;4.32;;;9.20;99.90;;;;;;5039319;28;20208;-78
2023/03/25 02:53:50;;;;;;;9.13;4.50;;;9.40;99.90;;;;;;5043981;28;20396;-79
2023/03/25 02:56:21;;;;;;;6.00;4.72;;;9.50;99.90;;;;;;5047785;28;20411;-79
2023/03/25 02:58:50;;;;;;;4.90;3.47;;;9.50;99.90;;;;;;5049583;28;20213;-78
2023/03/25 03:01:17;;;;;;;8.07;5.38;;;9.50;99.90;;;;;;5040764;28;20211;-79
2023/03/25 03:03:44;;;;;;;8.20;4.68;;;9.50;99.90;;;;;;5040074;28;20215;-80
2023/03/25 03:06:36;;;;;;;5.93;4.60;;;9.50;99.90;;;;;;5045366;28;20200;-79
2023/03/25 03:09:26;;;;;;;10.25;5.28;;;9.50;99.90;;;;;;5039038;28;20208;-79
2023/03/25 03:12:15;;;;;;;5.95;4.28;;;9.50;99.90;;;;;;5030812;28;20208;-79
2023/03/25 03:15:03;;;;;;;9.82;5.88;;;9.50;99.90;;;;;;5040699;28;20278;-80
2023/03/25 03:17:48;;;;;;;8.57;5.93;;;9.40;99.90;;;;;;5029790;28;20204;-79
2023/03/25 03:20:42;;;;;;;12.20;6.15;;;9.30;99.90;;;;;;5049145;28;20199;-79
2023/03/25 03:23:29;;;;;;;6.93;4.63;;;9.30;99.90;;;;;;5046894;28;20215;-79
2023/03/25 03:26:03;;;;;;;10.40;4.75;;;9.20;99.90;;;;;;5052639;28;20207;-79
2023/03/25 03:28:49;;;;;;;6.85;5.30;;;9.10;99.90;;;;;;5038542;28;20193;-78
2023/03/25 03:31:24;;;;;;;5.60;3.95;;;9.10;99.90;;;;;;5042705;28;20208;-79
2023/03/25 03:34:27;;;;;;;10.63;4.68;;;8.90;99.90;;;;;;5042029;28;20800;-81
2023/03/25 03:36:59;;;;;;;5.88;4.05;;;8.90;99.90;;;;;;5047403;28;20216;-79
2023/03/25 03:39:35;;;;;;;5.75;5.20;;;9.00;99.90;;;;;;5047352;28;20242;-78
2023/03/25 03:42:15;;;;;;;7.05;4.97;;;8.90;99.90;;;;;;5045173;28;20496;-80
2023/03/25 03:44:48;;;;;;;6.55;4.88;;;8.90;99.90;;;;;;5037725;28;20208;-79
2023/03/25 03:47:25;;;;;;;5.60;4.20;;;8.90;99.90;;;;;;5043532;28;20224;-81
2023/03/25 03:50:03;;;;;;;7.72;5.40;;;9.10;99.90;;;;;;5045387;28;20262;-79
2023/03/25 03:52:44;;;;;;;7.63;4.68;;;8.90;99.90;;;;;;5042906;28;20203;-78
2023/03/25 03:55:29;;;;;;;4.63;4.22;;;8.60;99.90;;;;;;5051303;28;20211;-79
2023/03/25 03:58:03;;;;;;;5.35;4.07;;;8.60;99.90;;;;;;5047697;28;20500;-80
2023/03/25 04:00:41;;;;;;;6.00;4.20;;;8.60;99.90;;;;;;5031644;28;20204;-79
2023/03/25 04:03:47;;;;;;;5.75;3.90;;;8.50;99.90;;;;;;5048323;28;20212;-78
2023/03/25 04:06:21;;;;;;;5.60;4.70;;;8.40;99.90;;;;;;5044907;28;20208;-79
2023/03/25 04:08:59;;;;;;;8.07;4.40;;;8.50;99.90;;;;;;5046159;28;20207;-79
2023/03/25 04:11:34;;;;;;;8.60;5.40;;;8.50;99.90;;;;;;5040663;28;20200;-78
2023/03/25 04:14:03;;;;;;;8.27;5.20;;;8.40;99.90;;;;;;5040145;28;20223;-79
2023/03/25 04:16:31;;;;;;;6.20;4.18;;;8.50;99.90;;;;;;5040757;28;20246;-79
2023/03/25 04:19:05;;;;;;;8.35;4.85;;;8.60;99.90;;;;;;5036014;28;20212;-79
2023/03/25 04:21:32;;;;;;;4.50;3.75;;;8.70;99.90;;;;;;5041049;28;20243;-79
2023/03/25 04:24:00;;;;;;;7.18;5.50;;;8.80;99.90;;;;;;5050099;28;20345;-79
2023/03/25 04:26:32;;;;;;;5.47;4.38;;;8.80;99.90;;;;;;5054198;28;20204;-79
2023/03/25 04:29:00;;;;;;;5.35;4.07;;;9.00;99.90;;;;;;5050840;28;20199;-81
2023/03/25 04:31:29;;;;;;;6.47;4.93;;;9.00;99.90;;;;;;5049603;28;20460;-79
2023/03/25 04:33:57;;;;;;;7.03;4.40;;;9.00;99.90;;;;;;5052206;28;20453;-80
2023/03/25 04:36:28;;;;;;;5.70;4.47;;;9.00;99.90;;;;;;5052689;28;20675;-79
2023/03/25 04:38:55;;;;;;;10.48;4.25;;;8.80;99.90;;;;;;5035691;28;20209;-79
2023/03/25 04:41:22;;;;;;;4.38;3.92;;;8.90;99.90;;;;;;5055164;28;20468;-79
2023/03/25 04:43:49;;;;;;;7.20;4.28;;;8.90;99.90;;;;;;5049689;28;20223;-80
2023/03/25 04:46:17;;;;;;;7.07;5.15;;;8.90;99.90;;;;;;5049321;28;20416;-78
2023/03/25 04:48:46;;;;;;;7.60;6.43;;;8.90;99.90;;;;;;5050020;28;20215;-77
2023/03/25 04:51:14;;;;;;;5.85;5.25;;;8.70;99.90;;;;;;5047621;28;20512;-79
2023/03/25 04:53:42;;;;;;;7.10;4.30;;;8.60;99.90;;;;;;5042628;28;20223;-80
2023/03/25 04:56:14;;;;;;;9.93;4.63;;;8.60;99.90;;;;;;5047912;28;20256;-79
2023/03/25 04:58:43;;;;;;;5.85;5.10;;;8.70;99.90;;;;;;5045475;28;20201;-80
2023/03/25 05:01:29;;;;;;;8.25;5.32;;;8.70;99.90;;;;;;5046784;28;20205;-79
2023/03/25 05:04:03;;;;;;;5.38;4.15;;;8.40;99.90;;;;;;5049126;28;20203;-79
2023/03/25 05:06:37;;;;;;;7.30;4.53;;;8.40;99.90;;;;;;5045101;28;20207;-79
2023/03/25 05:09:05;;;;;;;11.65;4.68;;;8.40;99.90;;;;;;5042935;28;20279;-79
2023/03/25 05:11:38;;;;;;;5.35;4.75;;;8.60;99.90;;;;;;5048430;28;20213;-79
2023/03/25 05:14:06;;;;;;;12.15;5.28;;;8.70;99.90;;;;;;5046690;28;20611;-79
2023/03/25 05:16:34;;;;;;;4.90;3.58;;;8.70;99.90;;;;;;5040749;28;20196;-80
2023/03/25 05:19:02;;;;;;;5.65;4.13;;;8.80;99.90;;;;;;5046592;28;20199;-80
2023/03/25 05:21:30;;;;;;;5.75;4.53;;;8.90;99.90;;;;;;5050788;28;20294;-81
2023/03/25 05:23:57;;;;;;;4.63;3.80;;;9.00;99.90;;;;;;5038540;28;20204;-78
2023/03/25 05:26:24;;;;;;;5.30;4.90;;;9.30;99.90;;;;;;5047900;28;20208;-79
2023/03/25 05:28:55;;;;;;;4.95;4.03;;;9.30;99.90;;;;;;5044497;28;20200;-79
2023/03/25 05:31:22;;;;;;;9.82;5.40;;;9.10;99.90;;;;;;5039937;28;20224;-79
2023/03/25 05:33:50;;;;;;;7.10;4.55;;;9.30;99.90;;;;;;5037941;28;20550;-78
2023/03/25 05:36:17;;;;;;;7.32;4.55;;;9.30;99.90;;;;;;5055266;28;20213;-79
2023/03/25 05:38:43;;;;;;;4.60;4.07;;;9.40;99.90;;;;;;5047959;28;20196;-79
2023/03/25 05:41:15;;;;;;;5.72;4.10;;;9.30;99.90;;;;;;5051645;28;20207;-79
2023/03/25 05:43:46;;;;;;;4.63;3.75;;;9.70;99.90;;;;;;5047492;28;20208;-79
2023/03/25 05:46:14;;;;;;;9.82;3.67;;;10.20;99.90;;;;;;5053127;28;20271;-79
2023/03/25 05:48:41;;;;;;;6.93;5.18;;;10.70;99.90;;;;;;5051296;28;20208;-79
2023/03/25 05:51:16;;;;;;;4.93;3.40;;;11.20;99.90;;;;;;5045692;28;20538;-78
2023/03/25 05:53:48;;;;;;;8.68;3.70;;;11.80;99.90;;;;;;5038210;28;20613;-79
2023/03/25 05:56:20;;;;;;;7.63;3.55;;;12.60;99.90;;;;;;5052641;28;20504;-79
2023/03/25 05:58:49;;;;;;;5.57;3.45;;;13.40;99.90;;;;;;5049825;28;20204;-79
2023/03/25 06:01:18;;;;;;;3.90;3.22;;;14.20;99.90;;;;;;5051891;28;20448;-79
2023/03/25 06:03:59;;;;;;;7.60;3.37;;;15.00;99.90;;;;;;5039162;28;20223;-79
2023/03/25 06:06:26;;;;;;;4.10;3.70;;;15.40;99.90;;;;;;5046289;28;20443;-79
2023/03/25 06:08:54;;;;;;;4.20;3.27;;;15.70;99.90;;;;;;5046678;28;20516;-79
2023/03/25 06:11:21;;;;;;;5.13;3.80;;;16.20;99.90;;;;;;5036765;28;20499;-79
2023/03/25 06:13:48;;;;;;;6.80;3.57;;;16.60;99.90;;;;;;5042716;28;20523;-79
2023/03/25 06:16:21;;;;;;;5.03;4.23;;;17.20;99.90;;;;;;5048931;28;20449;-78
2023/03/25 06:18:50;;;;;;;6.70;4.43;;;18.30;99.90;;;;;;5053882;28;20408;-78
2023/03/25 06:21:18;;;;;;;4.40;3.97;;;19.00;99.90;;;;;;5049281;28;20446;-79
2023/03/25 06:23:49;;;;;;;4.83;3.40;;;19.00;99.90;;;;;;5043974;28;20424;-79
2023/03/25 06:26:16;;;;;;;5.70;3.80;;;19.90;99.90;;;;;;5050794;28;20487;-79
2023/03/25 06:28:44;;;;;;;4.17;3.70;;;20.30;99.90;;;;;;5045109;28;20421;-78
2023/03/25 06:31:17;;;;;;;4.47;3.10;;;21.00;99.90;;;;;;5037038;28;20463;-79
2023/03/25 06:33:44;;;;;;;4.97;3.30;;;22.40;99.90;;;;;;5046134;28;20504;-80
2023/03/25 06:36:14;;;;;;;9.57;3.90;;;23.00;99.90;;;;;;5052551;28;20643;-79
2023/03/25 06:38:41;;;;;;;5.30;3.57;;;21.70;99.90;;;;;;5039028;28;20416;-79
2023/03/25 06:41:08;;;;;;;7.17;4.00;;;20.20;99.90;;;;;;5044284;28;20442;-79
2023/03/25 06:43:35;;;;;;;3.93;3.20;;;18.90;99.90;;;;;;5044163;28;20457;-79
2023/03/25 06:46:02;;;;;;;5.03;3.60;;;18.00;99.90;;;;;;5051403;28;20595;-79
2023/03/25 06:48:29;;;;;;;4.70;2.80;;;17.00;99.90;;;;;;5044273;28;20664;-79
2023/03/25 06:50:56;;;;;;;5.60;3.40;;;16.30;99.90;;;;;;5055108;28;20437;-80
2023/03/25 06:53:23;;;;;;;6.07;3.43;;;15.80;99.90;;;;;;5058044;28;20442;-79
2023/03/25 06:55:50;;;;;;;4.77;3.43;;;15.30;99.90;;;;;;5055571;28;20423;-80
2023/03/25 06:58:17;;;;;;;5.03;3.57;;;15.00;99.90;;;;;;5060259;28;20583;-80
2023/03/25 07:00:45;;;;;;;4.47;3.13;;;14.60;99.90;;;;;;5061356;28;20425;-80
2023/03/25 07:03:12;;;;;;;7.10;4.40;;;14.20;99.90;;;;;;5041640;28;20437;-78
2023/03/25 07:05:41;;;;;;;4.80;4.40;;;13.90;99.90;;;;;;5042693;28;20754;-77
2023/03/25 07:08:09;;;;;;;4.23;3.83;;;14.10;99.90;;;;;;5035353;28;20764;-78
2023/03/25 07:10:35;;;;;;;6.60;4.57;;;13.90;99.90;;;;;;5042793;28;20452;-78
2023/03/25 07:13:02;;;;;;;10.52;3.63;;;14.00;99.90;;;;;;5041359;28;20442;-78
2023/03/25 07:15:30;;;;;;;5.15;3.95;;;13.80;99.90;;;;;;5040230;28;20266;-79
2023/03/25 07:17:57;;;;;;;3.92;3.53;;;13.60;99.90;;;;;;5044502;28;20254;-78
2023/03/25 07:20:24;;;;;;;5.38;3.85;;;13.50;99.90;;;;;;5039257;28;20276;-78
2023/03/25 07:22:53;;;;;;;7.82;4.18;;;13.50;99.90;;;;;;5035567;28;20239;-78
2023/03/25 07:25:20;;;;;;;5.93;4.10;;;13.50;99.90;;;;;;5040859;28;20558;-78
2023/03/25 07:27:48;;;;;;;5.82;4.57;;;13.60;99.90;;;;;;5028715;28;20208;-79
2023/03/25 07:30:14;;;;;;;4.45;4.05;;;13.30;99.90;;;;;;5046568;28;20219;-79
2023/03/25 07:32:44;;;;;;;6.38;4.75;;;13.20;99.90;;;;;;5056198;28;20234;-79
2023/03/25 07:35:11;;;;;;;7.15;4.65;;;13.20;99.90;;;;;;5047642;28;20563;-80
2023/03/25 07:37:38;;;;;;;5.25;4.75;;;13.30;99.90;;;;;;5047852;28;20205;-79
2023/03/25 07:40:06;;;;;;;9.50;4.57;;;13.20;99.90;;;;;;5037169;28;20433;-80
2023/03/25 07:42:36;;;;;;;10.77;5.90;;;13.30;99.90;;;;;;5047910;28;20257;-79
2023/03/25 07:45:05;;;;;;;12.60;4.38;;;13.30;99.90;;;;;;5047390;28;20499;-79
2023/03/25 07:47:31;;;;;;;7.05;4.20;;;13.60;99.90;;;;;;5039747;28;20204;-78
2023/03/25 07:49:59;;;;;;;7.40;4.55;;;13.70;99.90;;;;;;5045901;28;20559;-79
2023/03/25 07:52:26;;;;;;;7.68;2.60;;;13.80;99.90;;;;;;5050852;28;20499;-78
2023/03/25 07:54:53;;;;;;;3.20;2.42;;;13.80;99.90;;;;;;5031262;28;20232;-80
2023/03/25 07:57:19;;;;;;;2.25;2.05;;;13.90;99.90;;;;;;5045005;28;20621;-80
2023/03/25 07:59:47;;;;;;;4.93;3.65;;;13.90;99.90;;;;;;5042332;28;20204;-79
2023/03/25 08:02:14;;;;;;;3.55;2.47;;;14.00;99.90;;;;;;5053963;28;20427;-80
2023/03/25 08:04:42;;;;;;;2.58;2.38;;;14.20;99.90;;;;;;5041636;28;20267;-82
2023/03/25 08:07:08;;;;;;;3.60;2.00;;;14.30;99.90;;;;;;5050512;28;20254;-80
2023/03/25 08:09:35;;;;;;;9.60;3.40;;;14.60;99.90;;;;;;5045013;28;20495;-79
2023/03/25 08:12:02;;;;;;;3.70;1.83;;;14.70;99.90;;;;;;5035824;28;20470;-79
2023/03/25 08:14:29;;;;;;;3.53;1.80;;;14.70;99.90;;;;;;5045739;28;20480;-79
2023/03/25 08:16:56;;;;;;;6.30;2.13;;;14.90;99.90;;;;;;5046138;28;20445;-80
2023/03/25 08:19:23;;;;;;;2.30;1.60;;;15.00;99.90;;;;;;5048946;28;20445;-79
2023/03/25 08:21:50;;;;;;;4.20;1.60;;;15.40;99.90;;;;;;5048913;28;20454;-80
2023/03/25 08:24:17;;;;;;;4.10;1.40;;;16.10;99.90;;;;;;5039774;28;20453;-80
2023/03/25 08:26:44;;;;;;;1.70;1.60;;;16.70;99.90;;;;;;5047984;28;20416;-80
2023/03/25 08:29:11;;;;;;;2.30;1.73;;;16.90;99.90;;;;;;5033114;28;20449;-80
2023/03/25 08:31:39;;;;;;;2.30;1.63;;;16.90;99.90;;;;;;5041874;28;20762;-78
2023/03/25 08:34:06;;;;;;;6.10;2.20;;;16.70;99.90;;;;;;5038891;28;20433;-78
2023/03/25 08:36:33;;;;;;;7.60;2.37;;;16.30;99.90;;;;;;5041990;28;20428;-79
2023/03/25 08:39:00;;;;;;;1.57;1.47;;;16.40;99.90;;;;;;5042068;28;20446;-78
2023/03/25 08:41:27;;;;;;;7.37;1.80;;;16.40;99.90;;;;;;5048381;28;20416;-78
2023/03/25 08:43:54;;;;;;;6.03;2.27;;;16.40;99.90;;;;;;5047839;28;20445;-79
2023/03/25 08:46:21;;;;;;;2.37;1.07;;;16.10;99.90;;;;;;5053105;28;20440;-80
2023/03/25 08:48:49;;;;;;;4.33;1.27;;;15.70;99.90;;;;;;5038208;28;20446;-80
2023/03/25 08:51:16;;;;;;;1.33;0.83;;;15.10;99.90;;;;;;5039389;28;20476;-79
2023/03/25 08:53:43;;;;;;;5.10;1.33;;;14.90;99.90;;;;;;5036248;28;20441;-79
2023/03/25 08:56:10;;;;;;;3.13;1.53;;;14.40;99.90;;;;;;5042376;28;20697;-79
2023/03/25 08:58:37;;;;;;;1.20;1.03;;;14.20;99.90;;;;;;5046883;28;20440;-78
2023/03/25 09:01:05;;;;;;;2.90;1.10;;;14.10;99.90;;;;;;5050721;28;20756;-79
2023/03/25 09:03:32;;;;;;;0.70;0.70;;;14.10;99.90;;;;;;5040041;28;20448;-79
2023/03/25 09:06:04;;;;;;;2.87;1.50;;;14.10;99.90;;;;;;5041958;28;20204;-81
2023/03/25 09:08:32;;;;;;;2.13;1.45;;;14.10;99.90;;;;;;5055229;28;20490;-80
2023/03/25 09:10:59;;;;;;;7.23;1.10;;;14.20;99.90;;;;;;5037674;28;20251;-79
2023/03/25 09:13:25;;;;;;;1.23;1.13;;;14.60;99.90;;;;;;5044343;28;20504;-79
2023/03/25 09:15:52;;;;;;;1.77;1.00;;;14.70;99.90;;;;;;5040677;28;20909;-81
2023/03/25 09:18:26;;;;;;;2.90;1.17;;;14.90;99.90;;;;;;5047655;28;20440;-79
2023/03/25 09:20:58;;;;;;;2.47;1.13;;;15.10;99.90;;;;;;5047196;28;20209;-79
2023/03/25 09:23:25;;;;;;;3.90;1.03;;;15.10;99.90;;;;;;5043817;28;20770;-80
2023/03/25 09:25:58;;;;;;;3.23;1.50;;;15.10;99.90;;;;;;5049845;28;20497;-79
2023/03/25 09:28:25;;;;;;;5.63;1.30;;;15.20;99.90;;;;;;5035192;28;20869;-79
2023/03/25 09:30:53;;;;;;;2.47;1.40;;;15.40;99.90;;;;;;5049061;28;20533;-79
2023/03/25 09:33:21;;;;;;;1.70;1.60;;;15.40;99.90;;;;;;5054478;28;20504;-81
2023/03/25 09:35:49;;;;;;;7.10;2.43;;;15.70;99.90;;;;;;5055455;28;20839;-79
2023/03/25 09:38:16;;;;;;;1.20;1.10;;;16.10;99.90;;;;;;5039354;28;20450;-79
2023/03/25 09:40:44;;;;;;;3.00;1.47;;;16.50;99.90;;;;;;5039855;28;20446;-79
2023/03/25 09:43:53;;;;;;;1.47;1.37;;;16.70;99.90;;;;;;5043788;28;20681;-79
2023/03/25 09:46:21;;;;;;;2.40;1.30;;;16.70;99.90;;;;;;5044739;28;20595;-81
2023/03/25 09:48:49;;;;;;;2.00;1.03;;;17.10;99.90;;;;;;5036951;28;20512;-80
2023/03/25 09:51:29;;;;;;;12.23;2.47;;;17.00;99.90;;;;;;5029082;28;20774;-79
2023/03/25 09:54:23;;;;;;;5.97;1.40;;;16.30;99.90;;;;;;5039633;28;20429;-79
2023/03/25 09:56:51;;;;;;;2.67;1.60;;;16.30;99.90;;;;;;5035892;28;20642;-82
2023/03/25 09:59:22;;;;;;;1.53;1.00;;;16.50;99.90;;;;;;5043497;28;20520;-77
2023/03/25 10:02:29;;;;;;;1.40;1.30;;;16.40;99.90;;;;;;5044361;28;20440;-80
2023/03/25 10:05:17;;;;;;;3.67;1.60;;;16.20;99.90;;;;;;5033765;28;20453;-80
2023/03/25 10:08:29;;;;;;;2.50;0.90;;;16.10;99.90;;;;;;5042618;28;20967;-80
2023/03/25 10:11:25;;;;;;;1.27;1.10;;;16.30;99.90;;;;;;5031469;28;20560;-80
2023/03/25 10:14:13;;;;;;;3.90;1.17;;;16.70;99.90;;;;;;5038253;28;20442;-80
2023/03/25 10:17:21;;;;;;;1.10;0.90;;;16.60;99.90;;;;;;5044084;28;20656;-80
2023/03/25 10:19:57;;;;;;;1.00;0.80;;;16.50;99.90;;;;;;5039451;28;20448;-80
2023/03/25 10:22:46;;;;;;;2.20;0.83;;;16.30;99.90;;;;;;5040799;28;20448;-80
2023/03/25 10:25:19;;;;;;;4.53;1.07;;;16.40;99.90;;;;;;5057836;28;20409;-79
2023/03/25 10:27:50;;;;;;;1.10;1.00;;;16.30;99.90;;;;;;5029700;28;20883;-79
2023/03/25 10:30:33;;;;;;;1.13;1.00;;;16.40;99.90;;;;;;5040115;28;20992;-80
2023/03/25 10:33:07;;;;;;;1.23;0.87;;;16.50;99.90;;;;;;5043979;28;20472;-79
2023/03/25 10:35:38;;;;;;;1.50;0.97;;;16.40;99.90;;;;;;5044923;28;20462;-80
2023/03/25 10:38:22;;;;;;;7.23;1.20;;;16.60;99.90;;;;;;5042159;28;20476;-80
2023/03/25 10:40:55;;;;;;;1.20;1.00;;;16.60;99.90;;;;;;5036925;28;20453;-80
2023/03/25 10:43:22;;;;;;;1.50;1.20;;;16.70;99.90;;;;;;5056205;28;20425;-79
2023/03/25 10:45:51;;;;;;;2.33;1.23;;;16.70;99.90;;;;;;5046841;28;20448;-80
2023/03/25 10:48:26;;;;;;;1.50;1.07;;;16.50;99.90;;;;;;5040647;28;20500;-79
2023/03/25 10:51:07;;;;;;;1.77;1.20;;;16.60;99.90;;;;;;5038939;28;20665;-80
2023/03/25 10:53:35;;;;;;;2.63;1.10;;;16.50;99.90;;;;;;5039378;28;20425;-79
2023/03/25 10:56:12;;;;;;;2.63;1.20;;;16.60;99.90;;;;;;5042581;28;20879;-79
2023/03/25 10:58:41;;;;;;;1.00;0.80;;;16.60;99.90;;;;;;5027251;28;20778;-80
2023/03/25 11:01:17;;;;;;;1.07;0.90;;;16.30;99.90;;;;;;5036592;28;20508;-82
2023/03/25 11:03:50;;;;;;;2.50;1.07;;;15.80;99.90;;;;;;5037813;28;20740;-79
2023/03/25 11:06:28;;;;;;;1.60;1.17;;;15.80;99.90;;;;;;5043249;28;20650;-79
2023/03/25 11:09:14;;;;;;;1.23;0.97;;;15.70;99.90;;;;;;5032028;28;20459;-79
2023/03/25 11:11:42;;;;;;;2.63;1.33;;;15.90;99.90;;;;;;5042596;28;20444;-79
2023/03/25 11:14:10;;;;;;;2.90;1.20;;;16.20;99.90;;;;;;5037294;28;20517;-80
2023/03/25 11:16:45;;;;;;;0.80;0.80;;;16.40;99.90;;;;;;5039570;28;20489;-81
2023/03/25 11:19:40;;;;;;;3.07;1.17;;;16.50;99.90;;;;;;5041034;28;20425;-80
2023/03/25 11:22:21;;;;;;;3.23;1.50;;;16.40;99.90;;;;;;5043158;28;20469;-82
2023/03/25 11:24:53;;;;;;;1.53;1.00;;;16.40;99.90;;;;;;5045385;28;20431;-79
2023/03/25 11:27:27;;;;;;;1.27;1.10;;;16.50;99.90;;;;;;5056797;28;20412;-81
2023/03/25 11:30:05;;;;;;;1.37;1.27;;;16.80;99.90;;;;;;5056406;28;20460;-80
2023/03/25 11:32:34;;;;;;;4.47;1.50;;;17.30;99.90;;;;;;5045399;28;20420;-79
2023/03/25 11:35:13;;;;;;;4.93;1.93;;;17.40;99.90;;;;;;5045815;28;20496;-79
2023/03/25 11:38:01;;;;;;;4.27;2.40;;;17.60;99.90;;;;;;5031975;28;20441;-79
2023/03/25 11:40:30;;;;;;;1.70;1.60;;;17.70;99.90;;;;;;5045273;28;20452;-81
2023/03/25 11:42:59;;;;;;;1.13;1.07;;;17.60;99.90;;;;;;5039423;28;20442;-82
2023/03/25 11:45:37;;;;;;;1.57;1.47;;;17.20;99.90;;;;;;5034267;28;20494;-80
2023/03/25 11:48:23;;;;;;;3.43;1.10;;;16.70;99.90;;;;;;5044600;28;20579;-79
2023/03/25 11:50:56;;;;;;;7.10;2.07;;;16.80;99.90;;;;;;5048732;28;20553;-79
2023/03/25 11:53:27;;;;;;;3.50;1.67;;;17.20;99.90;;;;;;5040529;28;20404;-81
2023/03/25 11:55:57;;;;;;;1.93;1.70;;;17.30;99.90;;;;;;5040900;28;20477;-81
2023/03/25 11:58:32;;;;;;;2.17;1.53;;;17.30;99.90;;;;;;5035733;28;20445;-81
2023/03/25 12:01:02;;;;;;;2.17;1.60;;;17.30;99.90;;;;;;5050736;28;20425;-79
2023/03/25 12:03:32;;;;;;;2.00;1.20;;;16.90;99.90;;;;;;5047616;28;20421;-82
2023/03/25 12:06:15;;;;;;;2.57;2.37;;;16.60;99.90;;;;;;5038519;28;20500;-80
2023/03/25 12:08:48;;;;;;;2.10;1.90;;;16.50;99.90;;;;;;5040678;28;20484;-80
2023/03/25 12:11:22;;;;;;;5.30;2.17;;;16.30;99.90;;;;;;5037697;28;20618;-80
2023/03/25 12:14:17;;;;;;;2.73;1.43;;;16.00;99.90;;;;;;5041200;28;20437;-79
2023/03/25 12:17:04;;;;;;;1.53;1.43;;;15.70;99.90;;;;;;5047218;28;20796;-81
2023/03/25 12:19:39;;;;;;;4.40;2.00;;;15.30;99.90;;;;;;5048703;28;20444;-79
2023/03/25 12:22:29;;;;;;;2.87;1.33;;;15.00;99.90;;;;;;5044090;28;20435;-80
2023/03/25 12:25:08;;;;;;;3.50;1.20;;;14.60;99.90;;;;;;5044379;28;20603;-82
2023/03/25 12:27:41;;;;;;;2.00;1.13;;;14.10;99.90;;;;;;5031529;28;20412;-80
2023/03/25 12:30:20;;;;;;;3.00;1.38;;;13.40;99.90;;;;;;5046893;28;20457;-79
2023/03/25 12:32:52;;;;;;;1.05;0.90;;;13.10;99.90;;;;;;5044730;28;20204;-80
2023/03/25 12:35:48;;;;;;;2.08;1.40;;;12.90;99.90;;;;;;5043505;28;20228;-80
2023/03/25 12:38:53;;;;;;;2.63;1.50;;;12.30;99.90;;;;;;5041401;28;20383;-80
2023/03/25 12:41:59;;;;;;;2.55;1.75;;;11.90;99.90;;;;;;5039831;28;20207;-78
2023/03/25 12:44:49;;;;;;;1.05;0.98;;;11.80;99.90;;;;;;5042243;28;20213;-78
2023/03/25 12:47:24;;;;;;;1.80;1.08;;;11.80;99.90;;;;;;5038893;28;20213;-79
2023/03/25 12:50:05;;;;;;;2.35;1.40;;;11.60;99.90;;;;;;5034411;28;20246;-79
2023/03/25 12:52:47;;;;;;;3.17;1.50;;;11.50;99.90;;;;;;5049796;28;20206;-77
2023/03/25 12:55:46;;;;;;;1.33;1.23;;;11.80;99.90;;;;;;5059613;28;20241;-79
2023/03/25 12:58:43;;;;;;;1.85;1.40;;;12.50;99.90;;;;;;5038466;28;20262;-78
2023/03/25 13:01:28;;;;;;;1.17;1.08;;;13.00;99.90;;;;;;5040198;28;20212;-80
2023/03/25 13:04:12;;;;;;;4.05;2.47;;;13.40;99.90;;;;;;5049090;28;20223;-79
2023/03/25 13:07:01;;;;;;;2.35;1.80;;;13.90;99.90;;;;;;5037750;28;20265;-79
2023/03/25 13:09:45;;;;;;;1.45;1.35;;;14.40;99.90;;;;;;5033563;28;20382;-79
2023/03/25 13:12:59;;;;;;;1.63;1.42;;;14.30;99.90;;;;;;5048142;28;20220;-81
2023/03/25 13:15:30;;;;;;;0.70;0.70;;;13.70;99.90;;;;;;5039538;28;20244;-79
2023/03/25 13:18:06;;;;;;;1.23;1.20;;;13.40;99.90;;;;;;5038921;28;20433;-80
2023/03/25 13:20:41;;;;;;;1.30;1.20;;;13.40;99.90;;;;;;5044832;28;20211;-79